Nearby METAR Reports

 

KDPA - Chicago/Dupage, Illinois, USA
Distance from station: NW 11mi, 18km
Updated: Tue, 13-Apr-2021 6:52pm CDT
Partly cloudy
Partly cloudy
 Wind from W
Wind: W 10 mph , 17 km/h
Temperature: 50°F , 10°C
Wind Chill: 46°F , 8°C
Dew Point: 30°F , -1°C
Humidity: 47%
Barometer: 30.08 inHg , 1018.6 hPa
Clouds: Partly cloudy
Visibility: 10 miles , 16 km
Cloud details: Partly cloudy 6000 ft
2021/04/13 23:52 KDPA 132352Z AUTO 28009KT 10SM SCT060 10/M01 A3008 RMK AO2 SLP190 T01001011 10122 20100 56002
KLOT - Romeoville/Chi, Illinois, USA
Distance from station: S 13mi, 21km
Updated: Tue, 13-Apr-2021 7:35pm CDT
Mostly cloudy
Mostly cloudy
 Wind from W
Wind: W 8 mph , 13 km/h
Temperature: 50°F , 10°C
Wind Chill: 47°F , 8°C
Dew Point: 34°F , 1°C
Humidity: 54%
Barometer: 30.11 inHg , 1019.6 hPa
Clouds: Mostly cloudy
Visibility: 10 miles , 16 km
Cloud details: Mostly cloudy 5500 ft
2021/04/14 00:35 KLOT 140035Z AUTO 28007KT 10SM BKN055 10/01 A3011 RMK AO2 T00990006
 
KORD - Chicago O'Hare, Illinois, USA
Distance from station: NE 17mi, 27km
Updated: Tue, 13-Apr-2021 6:51pm CDT
Mostly cloudy
Mostly cloudy
 Wind from W
Wind: W 8 mph , 13 km/h, Gust: 20 mph , 31 km/h
Temperature: 52°F , 11°C
Dew Point: 30°F , -1°C
Humidity: 44%
Barometer: 30.08 inHg , 1018.6 hPa
Clouds: Mostly cloudy
Visibility: 10 miles , 16 km
Cloud details: Mostly cloudy 5500 ft
2021/04/13 23:51 KORD 132351Z 28007G17KT 10SM BKN055 11/M01 A3008 RMK AO2 PK WND 25026/2301 SLP189 T01111011 10122 20106 53001
KARR - Chicago/Aurora, Illinois, USA
Distance from station: W 19mi, 30km
Updated: Tue, 13-Apr-2021 6:52pm CDT
Partly cloudy
Partly cloudy
 Wind from W
Wind: W 16 mph , 26 km/h
Temperature: 52°F , 11°C
Dew Point: 30°F , -1°C
Humidity: 44%
Barometer: 30.08 inHg , 1018.6 hPa
Clouds: Partly cloudy
Visibility: 10 miles , 16 km
Cloud details: Partly cloudy 6000 ft
2021/04/13 23:52 KARR 132352Z 26014KT 10SM SCT060 11/M01 A3008 RMK AO2 SLP190 T01061006 10122 20094 56002
 
KJOT - Joliet, Illinois, USA
Distance from station: S 19mi, 31km
Updated: Tue, 13-Apr-2021 7:35pm CDT
Partly cloudy
Partly cloudy
 Wind from W
Wind: W 5 mph , 7 km/h
Temperature: 54°F , 12°C
Dew Point: 32°F , 0°C
Humidity: 44%
Barometer: 30.11 inHg , 1019.6 hPa
Clouds: Partly cloudy
Visibility: 10 miles , 16 km
Cloud details: Partly cloudy 5500 ft
2021/04/14 00:35 KJOT 140035Z AUTO 28004KT 10SM SCT055 12/00 A3011 RMK AO2 T01160001
KMDW - Chicago, Illinois, USA
Distance from station: E 19mi, 31km
Updated: Tue, 13-Apr-2021 6:53pm CDT
Mostly cloudy
Mostly cloudy
 Wind from WNW
Wind: WNW 14 mph , 22 km/h
Temperature: 54°F , 12°C
Dew Point: 28°F , -2°C
Humidity: 38%
Barometer: 30.09 inHg , 1019 hPa
Clouds: Mostly cloudy
Visibility: 10 miles , 16 km
Cloud details: Mostly cloudy 6000 ft
2021/04/13 23:53 KMDW 132353Z 29012KT 10SM BKN060 12/M02 A3009 RMK AO2 SLP191 T01171022 10128 20111 58001
 
KPWK - Palwaukee, Illinois, USA
Distance from station: NNE 25mi, 41km
Updated: Tue, 13-Apr-2021 6:52pm CDT
Overcast
Overcast
 Wind from W
Wind: W 9 mph , 15 km/h
Temperature: 54°F , 12°C
Dew Point: 30°F , -1°C
Humidity: 41%
Barometer: 30.10 inHg , 1019.3 hPa
Clouds: Overcast
Visibility: 10 miles , 16 km
Cloud details: Overcast 5500 ft
2021/04/13 23:52 KPWK 132352Z 28008KT 10SM OVC055 12/M01 A3010 RMK AO2 SLP194 T01171011 10128 20106 53002
KC09 - Morris-Washburn, Illinois, USA
Distance from station: SSW 29mi, 47km
Updated: Tue, 13-Apr-2021 7:35pm CDT
Partly cloudy
Partly cloudy
 Wind from WNW
Wind: WNW 8 mph , 13 km/h
Temperature: 50°F , 10°C
Wind Chill: 47°F , 8°C
Dew Point: 32°F , 0°C
Humidity: 50%
Barometer: 30.10 inHg , 1019.3 hPa
Clouds: Partly cloudy
Visibility: 10 miles , 16 km
Cloud details: Partly cloudy 6000 ft
2021/04/14 00:35 KC09 140035Z AUTO 29007KT 10SM SCT060 10/00 A3010 RMK AO2 T01031002
 
KDKB - De Kalb, Illinois, USA
Distance from station: WNW 31mi, 50km
Updated: Tue, 13-Apr-2021 7:35pm CDT
Partly cloudy
Partly cloudy
 Wind from WSW
Wind: WSW 7 mph , 11 km/h
Temperature: 48°F , 9°C
Wind Chill: 45°F , 7°C
Dew Point: 32°F , 0°C
Humidity: 54%
Barometer: 30.09 inHg , 1019 hPa
Clouds: Partly cloudy
Visibility: 10 miles , 16 km
Cloud details: Partly cloudy 6000 ft
2021/04/14 00:35 KDKB 140035Z AUTO 25006KT 10SM SCT060 09/00 A3009 RMK AO2 T00861003
KIGQ - Chicago/Lansing, Illinois, USA
Distance from station: ESE 35mi, 57km
Updated: Tue, 13-Apr-2021 7:35pm CDT
Overcast
Overcast
 Wind from W
Wind: W 7 mph , 11 km/h
Temperature: 52°F , 11°C
Dew Point: 32°F , 0°C
Humidity: 47%
Barometer: 30.11 inHg , 1019.6 hPa
Clouds: Overcast
Visibility: 10 miles , 16 km
Cloud details: Overcast 5500 ft
2021/04/14 00:35 KIGQ 140035Z AUTO 28006KT 10SM OVC055 11/00 A3011 RMK AO2 T01071001
 
KGYY - Gary Regional, Indiana, USA
Distance from station: ESE 38mi, 62km
Updated: Tue, 13-Apr-2021 7:45pm CDT
Mostly cloudy
Mostly cloudy
 Wind from W
Wind: W 7 mph , 11 km/h
Temperature: 52°F , 11°C
Dew Point: 32°F , 0°C
Humidity: 47%
Barometer: 30.10 inHg , 1019.3 hPa
Clouds: Mostly cloudy
Visibility: 10 miles , 16 km
Cloud details: Mostly cloudy 5500 ft
2021/04/14 00:45 KGYY 140045Z 27006KT 10SM BKN055 11/00 A3010
KUGN - Waukegan, Illinois, USA
Distance from station: NNE 45mi, 73km
Updated: Tue, 13-Apr-2021 6:55pm CDT
Overcast
Overcast
 Wind from W
Wind: W 7 mph , 11 km/h
Temperature: 50°F , 10°C
Wind Chill: 47°F , 8°C
Dew Point: 28°F , -2°C
Humidity: 43%
Barometer: 30.07 inHg , 1018.3 hPa
Clouds: Overcast
Visibility: 10 miles , 16 km
Cloud details: Overcast 5500 ft
2021/04/13 23:55 KUGN 132355Z 28006KT 10SM OVC055 10/M02 A3007 RMK AO2 SLP187 T01001017 10117 20100 51003
 
KRPJ - Rochelle/Koritz, Illinois, USA
Distance from station: W 50mi, 80km
Updated: Tue, 13-Apr-2021 7:35pm CDT
Clear
Clear
 Wind from W
Wind: W 9 mph , 15 km/h
Temperature: 48°F , 9°C
Wind Chill: 44°F , 7°C
Dew Point: 34°F , 1°C
Humidity: 58%
Barometer: 30.09 inHg , 1019 hPa
Clouds: Clear
Visibility: 10 miles , 16 km
2021/04/14 00:35 KRPJ 140035Z AUTO 27008KT 10SM CLR 09/01 A3009 RMK AO2 T00850007